createdAt,value
2022-10-15T01:33:57.607Z,29.14
2022-10-15T01:36:41.154Z,29.24
2022-10-15T01:39:26.436Z,29.28
2022-10-15T01:42:05.507Z,29.31
2022-10-15T01:44:45.688Z,29.42
2022-10-15T01:47:50.077Z,29.25
2022-10-15T01:50:25.291Z,29.40
2022-10-15T01:52:59.585Z,29.41
2022-10-15T01:55:32.724Z,29.47
2022-10-15T01:58:06.774Z,29.51
2022-10-15T02:00:38.065Z,29.49
2022-10-15T02:03:08.678Z,29.61
2022-10-15T02:05:48.135Z,29.74
2022-10-15T02:09:05.795Z,29.77
2022-10-15T02:12:06.310Z,29.93
2022-10-15T02:14:58.724Z,29.96
2022-10-15T02:18:02.987Z,29.81
2022-10-15T02:21:13.586Z,29.90
2022-10-15T02:23:56.033Z,29.84
2022-10-15T02:26:30.772Z,29.84
2022-10-15T02:29:03.837Z,29.89
2022-10-15T02:31:37.139Z,29.96
2022-10-15T02:34:12.340Z,29.93
2022-10-15T02:36:45.248Z,29.90
2022-10-15T02:39:21.363Z,29.87
2022-10-15T02:41:53.319Z,29.89
2022-10-15T02:44:24.868Z,29.95
2022-10-15T02:46:55.848Z,30.00
2022-10-15T02:49:27.213Z,30.02
2022-10-15T02:51:58.583Z,30.06
2022-10-15T02:54:29.098Z,30.03
2022-10-15T02:57:00.086Z,30.10
2022-10-15T02:59:30.998Z,30.09
2022-10-15T03:02:02.889Z,30.12
2022-10-15T03:04:35.086Z,30.16
2022-10-15T03:07:06.266Z,30.17
2022-10-15T03:09:37.046Z,30.19
2022-10-15T03:12:09.490Z,30.27
2022-10-15T03:14:40.688Z,30.19
2022-10-15T03:17:11.504Z,30.19
2022-10-15T03:19:43.116Z,30.18
2022-10-15T03:22:14.042Z,30.26
2022-10-15T03:24:52.097Z,30.26
2022-10-15T03:27:28.055Z,30.24
2022-10-15T03:30:00.595Z,30.27
2022-10-15T03:32:36.252Z,30.29
2022-10-15T03:35:10.032Z,30.29
2022-10-15T03:37:40.848Z,30.32
2022-10-15T03:40:14.541Z,30.39
2022-10-15T03:42:47.473Z,30.36
2022-10-15T03:45:18.454Z,30.28
2022-10-15T03:47:53.609Z,30.29
2022-10-15T03:50:24.866Z,30.30
2022-10-15T03:52:56.127Z,30.28
2022-10-15T03:55:27.321Z,30.31
2022-10-15T03:57:58.219Z,30.38
2022-10-15T04:00:29.364Z,30.34
2022-10-15T04:03:03.597Z,30.33
2022-10-15T04:05:34.467Z,30.34
2022-10-15T04:08:09.802Z,30.37
2022-10-15T04:10:44.137Z,30.33
2022-10-15T04:13:14.965Z,30.29
2022-10-15T04:15:46.656Z,30.36
2022-10-15T04:18:18.297Z,30.40
2022-10-15T04:20:49.123Z,30.41
2022-10-15T04:23:26.519Z,30.36
2022-10-15T04:26:20.591Z,30.36
2022-10-15T04:28:52.151Z,30.40
2022-10-15T04:31:24.845Z,30.37
2022-10-15T04:33:56.893Z,30.39
2022-10-15T04:36:27.757Z,30.37
2022-10-15T04:39:08.667Z,30.41
2022-10-15T04:41:45.195Z,30.33
2022-10-15T04:44:24.516Z,30.38
2022-10-15T04:46:59.673Z,30.32
2022-10-15T04:49:47.051Z,30.30
2022-10-15T04:52:45.193Z,30.38
2022-10-15T04:55:17.053Z,30.40
2022-10-15T04:57:47.948Z,30.35
2022-10-15T05:00:23.861Z,30.32
2022-10-15T05:06:13.938Z,30.36
2022-10-15T05:08:46.095Z,30.28
2022-10-15T05:11:26.345Z,30.30
2022-10-15T05:14:00.335Z,30.26
2022-10-15T05:16:36.594Z,30.31
2022-10-15T05:19:11.917Z,30.41
2022-10-15T05:21:44.983Z,30.35
2022-10-15T05:24:25.825Z,30.42
2022-10-15T05:27:28.890Z,30.48
2022-10-15T05:29:59.895Z,30.50
2022-10-15T05:32:57.686Z,30.54
2022-10-15T05:35:29.060Z,30.55
2022-10-15T05:38:04.685Z,30.54
2022-10-15T05:40:35.466Z,30.55
2022-10-15T05:43:21.590Z,30.60
2022-10-15T05:45:56.402Z,30.60
2022-10-15T05:48:28.917Z,30.65
2022-10-15T05:51:11.849Z,30.62
2022-10-15T05:53:43.302Z,30.65
2022-10-15T05:56:15.109Z,30.71
2022-10-15T05:58:46.032Z,30.70
2022-10-15T06:01:17.522Z,30.66
2022-10-15T06:03:55.235Z,30.66
2022-10-15T06:06:30.084Z,30.73
2022-10-15T06:09:02.573Z,30.80
2022-10-15T06:11:33.889Z,30.80
2022-10-15T06:14:04.793Z,30.68
2022-10-15T06:16:36.090Z,30.76
2022-10-15T06:19:06.876Z,30.71
2022-10-15T06:21:37.676Z,30.74
2022-10-15T06:24:10.057Z,30.74
2022-10-15T06:26:41.387Z,30.77
2022-10-15T06:29:13.145Z,30.77
2022-10-15T06:31:43.857Z,30.80
2022-10-15T06:34:14.563Z,30.76
2022-10-15T06:36:45.492Z,30.86
2022-10-15T06:39:16.476Z,30.77
2022-10-15T06:41:48.201Z,30.88
2022-10-15T06:44:18.936Z,30.76
2022-10-15T06:46:49.631Z,30.78
2022-10-15T06:49:20.314Z,30.83
2022-10-15T06:51:51.004Z,30.81
2022-10-15T06:54:21.700Z,30.80
2022-10-15T06:56:52.252Z,30.73
2022-10-15T06:59:25.982Z,30.70
2022-10-15T07:01:57.939Z,30.74
2022-10-15T07:04:28.782Z,30.67
2022-10-15T07:06:59.968Z,30.63
2022-10-15T07:09:31.633Z,30.50
2022-10-15T07:12:02.360Z,30.63
2022-10-15T07:14:33.449Z,30.51
2022-10-15T07:17:05.108Z,30.34
2022-10-15T07:19:35.878Z,30.45
2022-10-15T07:22:06.744Z,30.37
2022-10-15T07:24:37.520Z,30.34
2022-10-15T07:27:18.681Z,30.35
2022-10-15T07:29:50.027Z,30.29
2022-10-15T07:32:21.131Z,30.12
2022-10-15T07:34:52.398Z,30.19
2022-10-15T07:37:23.171Z,30.10
2022-10-15T07:39:53.995Z,30.28
2022-10-15T07:42:24.715Z,30.14
2022-10-15T07:44:55.528Z,30.18
2022-10-15T07:47:26.574Z,30.01
2022-10-15T07:49:57.865Z,30.01
2022-10-15T07:52:28.492Z,29.93
2022-10-15T07:54:59.211Z,29.96
2022-10-15T07:57:30.058Z,29.83
2022-10-15T08:00:00.799Z,29.81
2022-10-15T08:02:31.617Z,29.72
2022-10-15T08:05:02.365Z,29.87
2022-10-15T08:07:33.315Z,29.81
2022-10-15T08:10:05.127Z,29.80
2022-10-15T08:12:35.948Z,29.83
2022-10-15T08:15:07.336Z,29.72
2022-10-15T08:17:38.221Z,29.83
2022-10-15T08:20:09.506Z,29.74
2022-10-15T08:22:40.174Z,29.83
2022-10-15T08:25:11.519Z,29.77
2022-10-15T08:27:41.824Z,29.75
2022-10-15T08:30:13.173Z,29.73
2022-10-15T08:32:43.574Z,29.62
2022-10-15T08:35:14.433Z,29.40
2022-10-15T08:37:45.091Z,29.34
2022-10-15T08:40:17.252Z,29.23
2022-10-15T08:42:49.522Z,29.23
2022-10-15T08:45:26.777Z,29.12
2022-10-15T08:48:07.620Z,29.06
2022-10-15T08:50:47.450Z,29.01
2022-10-15T08:53:23.429Z,29.20
2022-10-15T08:56:07.053Z,29.49
2022-10-15T09:01:58.475Z,29.58
2022-10-15T09:04:29.129Z,29.47
2022-10-15T09:07:18.221Z,29.56
2022-10-15T09:09:57.390Z,29.32
2022-10-15T09:12:49.141Z,29.48
2022-10-15T09:15:27.067Z,29.33
2022-10-15T09:17:58.911Z,29.37
2022-10-15T09:20:39.059Z,29.27
2022-10-15T09:23:18.461Z,29.24
2022-10-15T09:26:02.641Z,29.39
2022-10-15T09:28:50.004Z,29.51
2022-10-15T09:31:31.013Z,29.61
2022-10-15T09:34:14.821Z,29.56
2022-10-15T09:36:59.753Z,29.61
2022-10-15T09:39:57.482Z,29.59
2022-10-15T09:42:34.533Z,29.73
2022-10-15T09:45:13.229Z,29.62
2022-10-15T09:47:45.871Z,29.57
2022-10-15T09:53:07.951Z,29.54
2022-10-15T09:55:38.856Z,29.40
2022-10-15T09:58:21.513Z,29.39
2022-10-15T10:01:01.201Z,29.51
2022-10-15T10:03:39.834Z,29.37
2022-10-15T10:06:12.745Z,29.49
2022-10-15T10:09:02.084Z,29.24
2022-10-15T10:11:51.540Z,29.12
2022-10-15T10:14:46.043Z,29.23
2022-10-15T10:17:26.322Z,29.30
2022-10-15T10:20:23.220Z,28.96
2022-10-15T10:22:56.627Z,29.16
2022-10-15T10:25:31.330Z,28.82
2022-10-15T10:28:17.164Z,28.83
2022-10-15T10:31:06.455Z,28.55
2022-10-15T10:33:42.745Z,28.69
2022-10-15T10:36:33.409Z,28.90
2022-10-15T10:39:08.711Z,28.99
2022-10-15T10:41:54.495Z,29.02
2022-10-15T10:44:33.349Z,29.01
2022-10-15T10:47:22.926Z,28.90
2022-10-15T10:50:00.256Z,28.85
2022-10-15T10:52:34.253Z,28.59
2022-10-15T10:55:22.022Z,28.64
2022-10-15T10:57:57.131Z,28.60
2022-10-15T11:00:52.399Z,28.67
2022-10-15T11:03:40.568Z,28.65
2022-10-15T11:06:26.835Z,28.63
2022-10-15T11:09:26.989Z,28.54
2022-10-15T11:12:24.176Z,28.53
2022-10-15T11:15:27.003Z,28.66
2022-10-15T11:18:18.803Z,28.56
2022-10-15T11:21:08.218Z,28.39
2022-10-15T11:24:03.367Z,28.54
2022-10-15T11:27:11.273Z,28.31
2022-10-15T11:29:59.606Z,28.34
2022-10-15T11:33:13.349Z,28.37
2022-10-15T11:36:05.802Z,28.41
2022-10-15T11:38:59.962Z,28.61
2022-10-15T11:41:43.384Z,28.54
2022-10-15T11:44:47.578Z,28.70
2022-10-15T11:47:21.225Z,28.40
2022-10-15T11:49:51.878Z,28.67
2022-10-15T11:53:02.546Z,28.61
2022-10-15T11:55:53.384Z,28.36
2022-10-15T11:58:51.191Z,28.62
2022-10-15T12:02:01.397Z,28.71
2022-10-15T12:04:59.761Z,28.76
2022-10-15T12:07:41.743Z,28.65
2022-10-15T12:10:38.324Z,28.69
2022-10-15T12:13:13.859Z,28.72
2022-10-15T12:16:09.075Z,28.72
2022-10-15T12:19:00.837Z,28.68
2022-10-15T12:21:33.949Z,28.70
2022-10-15T12:24:06.211Z,28.54
2022-10-15T12:26:38.300Z,28.66
2022-10-15T12:29:24.140Z,28.68
2022-10-15T12:32:01.233Z,28.68
2022-10-15T12:34:42.606Z,28.70
2022-10-15T12:37:21.786Z,28.58
2022-10-15T12:40:00.146Z,28.56
2022-10-15T12:46:00.540Z,28.67
2022-10-15T12:48:37.209Z,28.62
2022-10-15T12:51:20.545Z,28.48
2022-10-15T12:53:52.843Z,28.47
2022-10-15T12:56:43.427Z,28.37
2022-10-15T12:59:34.562Z,28.07
2022-10-15T13:02:05.815Z,28.41
2022-10-15T13:04:42.218Z,28.46
2022-10-15T13:07:17.896Z,28.47
2022-10-15T13:09:48.983Z,28.42
2022-10-15T13:12:28.428Z,28.16
2022-10-15T13:15:06.997Z,28.10
2022-10-15T13:17:42.196Z,28.24
2022-10-15T13:20:46.536Z,27.91
2022-10-15T13:23:31.846Z,28.09
2022-10-15T13:26:16.908Z,28.06
2022-10-15T13:28:48.815Z,28.27
2022-10-15T13:31:34.458Z,28.37
2022-10-15T13:34:30.238Z,28.33
2022-10-15T13:37:03.756Z,28.44
2022-10-15T13:39:38.812Z,28.56
2022-10-15T13:42:19.457Z,28.64
2022-10-15T13:45:03.913Z,28.73
2022-10-15T13:47:37.116Z,28.79
2022-10-15T13:50:27.804Z,28.79
2022-10-15T13:53:24.709Z,28.86
2022-10-15T13:55:59.531Z,29.03
2022-10-15T13:58:32.072Z,28.96
2022-10-15T14:01:11.858Z,28.97
2022-10-15T14:03:58.961Z,29.00
2022-10-15T14:06:37.007Z,28.97
2022-10-15T14:09:31.720Z,28.97
2022-10-15T14:12:03.755Z,28.98
2022-10-15T14:14:49.411Z,29.01
2022-10-15T14:17:20.173Z,28.99
2022-10-15T14:20:25.679Z,28.99
2022-10-15T14:22:54.378Z,28.98
2022-10-15T14:25:29.241Z,29.00
2022-10-15T14:27:59.988Z,29.00
2022-10-15T14:30:35.646Z,28.99
2022-10-15T14:33:07.143Z,28.99
2022-10-15T14:35:39.883Z,28.97
2022-10-15T14:38:14.768Z,28.98
2022-10-15T14:41:06.475Z,29.01
2022-10-15T14:43:40.792Z,28.97
2022-10-15T14:49:00.798Z,28.98
2022-10-15T14:51:32.203Z,28.96
2022-10-15T14:54:03.567Z,28.96
2022-10-15T14:56:35.857Z,28.99
2022-10-15T14:59:07.134Z,29.00
2022-10-15T15:01:38.331Z,29.01
2022-10-15T15:04:09.181Z,28.98
2022-10-15T15:06:40.662Z,28.98
2022-10-15T15:09:11.819Z,29.01
2022-10-15T15:11:42.737Z,29.12
2022-10-15T15:14:29.836Z,29.21
2022-10-15T15:17:00.537Z,29.21
2022-10-15T15:19:31.152Z,29.14
2022-10-15T15:22:01.869Z,29.21
2022-10-15T15:24:32.439Z,29.21
2022-10-15T15:27:03.204Z,29.21
2022-10-15T15:29:34.128Z,29.21
2022-10-15T15:32:04.876Z,29.17
2022-10-15T15:34:35.985Z,29.21
2022-10-15T15:37:18.855Z,29.17
2022-10-15T15:39:49.774Z,29.13
2022-10-15T15:42:25.900Z,29.02
2022-10-15T15:44:57.123Z,28.95
2022-10-15T15:47:28.026Z,28.97
2022-10-15T15:49:58.859Z,28.95
2022-10-15T15:52:31.321Z,28.96
2022-10-15T15:55:04.970Z,28.93
2022-10-15T15:57:35.899Z,28.95
2022-10-15T16:00:11.847Z,28.91
2022-10-15T16:02:43.289Z,28.92
2022-10-15T16:05:17.199Z,28.95
2022-10-15T16:07:49.044Z,28.96
2022-10-15T16:10:20.486Z,28.93
2022-10-15T16:12:50.914Z,28.95
2022-10-15T16:15:21.412Z,28.93
2022-10-15T16:17:52.212Z,28.94
2022-10-15T16:20:23.107Z,28.95
2022-10-15T16:23:11.293Z,28.89
2022-10-15T16:25:41.716Z,28.88
2022-10-15T16:28:12.113Z,28.89
2022-10-15T16:30:42.425Z,28.86
2022-10-15T16:33:12.802Z,28.87
2022-10-15T16:35:43.460Z,28.89
2022-10-15T16:38:13.723Z,28.88
2022-10-15T16:40:44.006Z,28.82
2022-10-15T16:43:14.430Z,28.85
2022-10-15T16:45:44.832Z,28.80
2022-10-15T16:48:15.156Z,28.77
2022-10-15T16:50:45.598Z,28.83
2022-10-15T16:53:15.877Z,28.79
2022-10-15T16:55:46.202Z,28.86
2022-10-15T16:58:16.509Z,28.81
2022-10-15T17:00:46.779Z,28.82
2022-10-15T17:03:17.097Z,28.82
2022-10-15T17:05:47.437Z,28.85
2022-10-15T17:08:19.911Z,28.91
2022-10-15T17:10:51.905Z,28.86
2022-10-15T17:13:23.025Z,28.82
2022-10-15T17:15:59.139Z,28.80
2022-10-15T17:18:31.612Z,28.84
2022-10-15T17:21:01.823Z,28.82
2022-10-15T17:23:33.364Z,28.79
2022-10-15T17:26:07.857Z,28.79
2022-10-15T17:28:38.301Z,28.75
2022-10-15T17:31:10.074Z,28.77
2022-10-15T17:33:41.289Z,28.75
2022-10-15T17:36:15.953Z,28.75
2022-10-15T17:38:46.506Z,28.76
2022-10-15T17:41:18.614Z,28.74
2022-10-15T17:43:50.786Z,28.84
2022-10-15T17:46:22.272Z,28.79
2022-10-15T17:48:52.921Z,28.77
2022-10-15T17:51:26.322Z,28.83
2022-10-15T17:54:00.559Z,28.79
2022-10-15T17:56:32.601Z,28.78
2022-10-15T17:59:04.142Z,28.78
2022-10-15T18:04:26.990Z,28.82
2022-10-15T18:06:57.217Z,28.74
2022-10-15T18:09:28.579Z,28.75
2022-10-15T18:12:01.323Z,28.81
2022-10-15T18:14:34.321Z,28.73
2022-10-15T18:17:04.844Z,28.72
2022-10-15T18:19:35.387Z,28.71
2022-10-15T18:22:05.751Z,28.75
2022-10-15T18:24:36.012Z,28.76
2022-10-15T18:27:07.571Z,28.74
2022-10-15T18:29:38.863Z,28.80
2022-10-15T18:32:09.322Z,28.80
2022-10-15T18:34:39.553Z,28.75
2022-10-15T18:37:09.976Z,28.75
2022-10-15T18:39:40.196Z,28.79
2022-10-15T18:42:10.326Z,28.78
2022-10-15T18:44:40.407Z,28.75
2022-10-15T18:47:10.859Z,28.80
2022-10-15T18:49:46.044Z,28.78
2022-10-15T18:52:28.116Z,28.78
2022-10-15T18:55:06.691Z,28.74
2022-10-15T18:57:37.543Z,28.71
2022-10-15T19:00:08.212Z,28.78
2022-10-15T19:02:38.667Z,28.76
2022-10-15T19:05:08.934Z,28.72
2022-10-15T19:07:39.403Z,28.73
2022-10-15T19:10:09.765Z,28.72
2022-10-15T19:12:40.208Z,28.72
2022-10-15T19:15:10.868Z,28.73
2022-10-15T19:17:41.335Z,28.76
2022-10-15T19:20:11.956Z,28.70
2022-10-15T19:22:42.568Z,28.79
2022-10-15T19:25:12.838Z,28.68
2022-10-15T19:27:44.242Z,28.70
2022-10-15T19:30:14.865Z,28.74
2022-10-15T19:32:46.921Z,28.66
2022-10-15T19:35:17.259Z,28.67
2022-10-15T19:37:47.557Z,28.68
2022-10-15T19:40:17.907Z,28.68
2022-10-15T19:42:48.290Z,28.70
2022-10-15T19:45:18.706Z,28.73
2022-10-15T19:47:49.660Z,28.68
2022-10-15T19:50:20.056Z,28.65
2022-10-15T19:52:50.463Z,28.66
2022-10-15T19:55:24.252Z,28.69
2022-10-15T19:57:57.273Z,28.64
2022-10-15T20:00:27.928Z,28.68
2022-10-15T20:02:58.380Z,28.70
2022-10-15T20:05:28.707Z,28.61
2022-10-15T20:07:58.981Z,28.63
2022-10-15T20:10:29.203Z,28.67
2022-10-15T20:12:59.467Z,28.64
2022-10-15T20:15:29.822Z,28.61
2022-10-15T20:18:00.216Z,28.63
2022-10-15T20:20:30.583Z,28.64
2022-10-15T20:23:00.935Z,28.64
2022-10-15T20:25:31.232Z,28.62
2022-10-15T20:28:01.743Z,28.60
2022-10-15T20:30:32.008Z,28.64
2022-10-15T20:33:02.359Z,28.64
2022-10-15T20:35:35.038Z,28.61
2022-10-15T20:38:05.931Z,28.57
2022-10-15T20:40:37.502Z,28.63
2022-10-15T20:43:07.752Z,28.58
2022-10-15T20:45:43.700Z,28.57
2022-10-15T20:48:21.769Z,28.62
2022-10-15T20:50:52.564Z,28.55
2022-10-15T20:53:24.760Z,28.58
2022-10-15T20:55:55.301Z,28.51
2022-10-15T20:58:25.687Z,28.54
2022-10-15T21:00:56.023Z,28.55
2022-10-15T21:03:26.298Z,28.48
2022-10-15T21:05:56.807Z,28.48
2022-10-15T21:08:27.386Z,28.59
2022-10-15T21:11:03.952Z,28.48
2022-10-15T21:13:34.325Z,28.53
2022-10-15T21:16:05.729Z,28.48
2022-10-15T21:18:37.964Z,28.51
2022-10-15T21:21:26.650Z,28.51
2022-10-15T21:23:57.210Z,28.50
2022-10-15T21:26:27.978Z,28.51
2022-10-15T21:28:58.756Z,28.50
2022-10-15T21:31:29.961Z,28.45
2022-10-15T21:34:00.292Z,28.49
2022-10-15T21:36:31.396Z,28.54
2022-10-15T21:39:02.864Z,28.46
2022-10-15T21:41:34.512Z,28.50
2022-10-15T21:44:05.373Z,28.49
2022-10-15T21:46:36.152Z,28.49
2022-10-15T21:49:06.731Z,28.53
2022-10-15T21:51:37.806Z,28.47
2022-10-15T21:54:09.239Z,28.47
2022-10-15T21:56:39.914Z,28.46
2022-10-15T21:59:10.495Z,28.48
2022-10-15T22:01:41.148Z,28.51
2022-10-15T22:04:13.141Z,28.51
2022-10-15T22:06:43.591Z,28.47
2022-10-15T22:09:14.310Z,28.51
2022-10-15T22:11:44.997Z,28.43
2022-10-15T22:14:16.255Z,28.45
2022-10-15T22:16:46.581Z,28.45
2022-10-15T22:19:18.749Z,28.49
2022-10-15T22:21:49.058Z,28.43
2022-10-15T22:24:20.610Z,28.46
2022-10-15T22:26:52.255Z,28.43
2022-10-15T22:29:33.007Z,28.42
2022-10-15T22:32:05.717Z,28.47
2022-10-15T22:34:35.983Z,28.45
2022-10-15T22:37:06.402Z,28.45
2022-10-15T22:39:36.893Z,28.42
2022-10-15T22:42:08.555Z,28.46
2022-10-15T22:44:38.879Z,28.45
2022-10-15T22:47:09.338Z,28.45
2022-10-15T22:49:39.557Z,28.37
2022-10-15T22:52:09.947Z,28.46
2022-10-15T22:54:40.296Z,28.48
2022-10-15T22:57:10.645Z,28.46
2022-10-15T22:59:41.129Z,28.41
2022-10-15T23:02:11.573Z,28.40
2022-10-15T23:04:41.878Z,28.39
2022-10-15T23:07:12.271Z,28.40
2022-10-15T23:09:42.801Z,28.35
2022-10-15T23:12:13.617Z,28.36
2022-10-15T23:14:44.208Z,28.43
2022-10-15T23:17:14.525Z,28.38
2022-10-15T23:19:44.915Z,28.35
2022-10-15T23:22:15.289Z,28.35
2022-10-15T23:24:45.638Z,28.37
2022-10-15T23:27:15.967Z,28.40
2022-10-15T23:29:48.231Z,28.40
2022-10-15T23:32:23.801Z,28.34
2022-10-15T23:34:54.108Z,28.35
2022-10-15T23:37:24.753Z,28.37
2022-10-15T23:39:56.591Z,28.35
2022-10-15T23:42:27.057Z,28.37
2022-10-15T23:44:57.417Z,28.41
2022-10-15T23:47:28.147Z,28.34
2022-10-15T23:49:58.794Z,28.34
2022-10-15T23:52:29.508Z,28.37
2022-10-15T23:54:59.715Z,28.37
2022-10-15T23:57:29.934Z,28.34
